sensor_id;sensor_type;location;lat;lon;timestamp;pressure;altitude;pressure_sealevel;temperature;humidity
54816;BME280;40715;55.752;37.884;2023-12-20T00:02:17;97164.41;;;31.24;25.62
54816;BME280;40715;55.752;37.884;2023-12-20T00:04:44;97150.81;;;31.24;25.47
54816;BME280;40715;55.752;37.884;2023-12-20T00:07:12;97165.44;;;31.23;25.52
54816;BME280;40715;55.752;37.884;2023-12-20T00:09:39;97156.31;;;31.18;25.30
54816;BME280;40715;55.752;37.884;2023-12-20T00:12:06;97151.69;;;31.18;25.27
54816;BME280;40715;55.752;37.884;2023-12-20T00:14:33;97163.41;;;31.19;25.53
54816;BME280;40715;55.752;37.884;2023-12-20T00:17:00;97161.50;;;31.19;25.40
54816;BME280;40715;55.752;37.884;2023-12-20T00:19:27;97173.22;;;31.20;25.22
54816;BME280;40715;55.752;37.884;2023-12-20T00:21:54;97165.28;;;31.18;25.17
54816;BME280;40715;55.752;37.884;2023-12-20T00:24:21;97160.69;;;31.19;25.61
54816;BME280;40715;55.752;37.884;2023-12-20T00:26:48;97177.38;;;31.22;25.15
54816;BME280;40715;55.752;37.884;2023-12-20T00:29:15;97181.53;;;31.25;25.33
54816;BME280;40715;55.752;37.884;2023-12-20T00:31:42;97169.38;;;31.27;25.47
54816;BME280;40715;55.752;37.884;2023-12-20T00:34:09;97178.97;;;31.30;24.95
54816;BME280;40715;55.752;37.884;2023-12-20T00:36:36;97171.19;;;31.33;25.01
54816;BME280;40715;55.752;37.884;2023-12-20T00:39:03;97172.38;;;31.38;24.80
54816;BME280;40715;55.752;37.884;2023-12-20T00:41:31;97182.44;;;31.37;24.98
54816;BME280;40715;55.752;37.884;2023-12-20T00:43:58;97183.88;;;31.40;24.88
54816;BME280;40715;55.752;37.884;2023-12-20T00:46:25;97196.41;;;31.41;25.27
54816;BME280;40715;55.752;37.884;2023-12-20T00:48:52;97194.78;;;31.40;24.88
54816;BME280;40715;55.752;37.884;2023-12-20T00:51:19;97191.81;;;31.41;24.76
54816;BME280;40715;55.752;37.884;2023-12-20T00:53:46;97186.63;;;31.40;25.21
54816;BME280;40715;55.752;37.884;2023-12-20T00:56:16;97191.81;;;31.41;25.17
54816;BME280;40715;55.752;37.884;2023-12-20T00:58:43;97188.25;;;31.41;24.75
54816;BME280;40715;55.752;37.884;2023-12-20T01:01:10;97183.66;;;31.41;24.66
54816;BME280;40715;55.752;37.884;2023-12-20T01:03:37;97176.56;;;31.40;25.20
54816;BME280;40715;55.752;37.884;2023-12-20T01:06:04;97176.56;;;31.40;24.58
54816;BME280;40715;55.752;37.884;2023-12-20T01:08:32;97181.59;;;31.37;24.68
54816;BME280;40715;55.752;37.884;2023-12-20T01:11:04;97172.84;;;31.35;25.06
54816;BME280;40715;55.752;37.884;2023-12-20T01:13:31;97181.25;;;31.33;24.93
54816;BME280;40715;55.752;37.884;2023-12-20T01:15:58;97163.25;;;31.32;24.91
54816;BME280;40715;55.752;37.884;2023-12-20T01:18:25;97159.09;;;31.29;24.87
54816;BME280;40715;55.752;37.884;2023-12-20T01:20:52;97162.28;;;31.26;25.00
54816;BME280;40715;55.752;37.884;2023-12-20T01:23:19;97151.38;;;31.26;24.69
54816;BME280;40715;55.752;37.884;2023-12-20T01:25:45;97147.00;;;31.25;24.69
54816;BME280;40715;55.752;37.884;2023-12-20T01:28:12;97151.03;;;31.23;24.70
54816;BME280;40715;55.752;37.884;2023-12-20T01:30:39;97149.34;;;31.22;24.83
54816;BME280;40715;55.752;37.884;2023-12-20T01:33:06;97144.16;;;31.20;24.94
54816;BME280;40715;55.752;37.884;2023-12-20T01:35:33;97141.66;;;31.19;24.59
54816;BME280;40715;55.752;37.884;2023-12-20T01:38:00;97139.41;;;31.15;24.79
54816;BME280;40715;55.752;37.884;2023-12-20T01:40:27;97140.44;;;31.14;24.70
54816;BME280;40715;55.752;37.884;2023-12-20T01:43:09;97143.91;;;31.22;24.71
54816;BME280;40715;55.752;37.884;2023-12-20T01:45:38;97143.16;;;31.14;24.73
54816;BME280;40715;55.752;37.884;2023-12-20T01:48:05;97143.84;;;31.10;24.93
54816;BME280;40715;55.752;37.884;2023-12-20T01:50:35;97141.13;;;31.10;25.10
54816;BME280;40715;55.752;37.884;2023-12-20T01:53:04;97123.75;;;31.11;24.91
54816;BME280;40715;55.752;37.884;2023-12-20T01:55:34;97121.88;;;31.11;24.65
54816;BME280;40715;55.752;37.884;2023-12-20T01:58:02;97111.00;;;31.11;24.94
54816;BME280;40715;55.752;37.884;2023-12-20T02:00:30;97116.44;;;31.11;25.20
54816;BME280;40715;55.752;37.884;2023-12-20T02:03:01;97124.59;;;31.11;25.38
54816;BME280;40715;55.752;37.884;2023-12-20T02:05:30;97118.69;;;31.14;25.46
54816;BME280;40715;55.752;37.884;2023-12-20T02:07:57;97132.06;;;31.16;25.36
54816;BME280;40715;55.752;37.884;2023-12-20T02:10:25;97132.66;;;31.18;25.11
54816;BME280;40715;55.752;37.884;2023-12-20T02:12:52;97117.19;;;31.19;25.50
54816;BME280;40715;55.752;37.884;2023-12-20T02:15:20;97130.31;;;31.22;24.90
54816;BME280;40715;55.752;37.884;2023-12-20T02:17:48;97116.34;;;31.18;25.09
54816;BME280;40715;55.752;37.884;2023-12-20T02:20:35;97119.22;;;31.23;25.09
54816;BME280;40715;55.752;37.884;2023-12-20T02:23:02;97122.97;;;31.22;25.42
54816;BME280;40715;55.752;37.884;2023-12-20T02:25:29;97121.13;;;31.23;25.00
54816;BME280;40715;55.752;37.884;2023-12-20T02:27:56;97118.63;;;31.21;24.89
54816;BME280;40715;55.752;37.884;2023-12-20T02:30:23;97104.41;;;31.19;25.07
54816;BME280;40715;55.752;37.884;2023-12-20T02:32:51;97100.47;;;31.15;24.97
54816;BME280;40715;55.752;37.884;2023-12-20T02:35:19;97113.63;;;31.18;24.93
54816;BME280;40715;55.752;37.884;2023-12-20T02:37:46;97095.88;;;31.15;24.96
54816;BME280;40715;55.752;37.884;2023-12-20T02:40:13;97098.59;;;31.15;25.19
54816;BME280;40715;55.752;37.884;2023-12-20T02:42:40;97098.59;;;31.15;24.92
54816;BME280;40715;55.752;37.884;2023-12-20T02:45:07;97103.66;;;31.12;25.18
54816;BME280;40715;55.752;37.884;2023-12-20T02:47:34;97118.31;;;31.11;25.03
54816;BME280;40715;55.752;37.884;2023-12-20T02:50:01;97116.66;;;31.10;25.25
54816;BME280;40715;55.752;37.884;2023-12-20T02:52:30;97117.47;;;31.10;25.07
54816;BME280;40715;55.752;37.884;2023-12-20T02:54:57;97127.53;;;31.10;25.56
54816;BME280;40715;55.752;37.884;2023-12-20T02:57:24;97137.34;;;31.11;25.45
54816;BME280;40715;55.752;37.884;2023-12-20T02:59:51;97129.41;;;31.09;25.98
54816;BME280;40715;55.752;37.884;2023-12-20T03:02:18;97128.34;;;31.10;25.98
54816;BME280;40715;55.752;37.884;2023-12-20T03:04:45;97123.75;;;31.11;26.22
54816;BME280;40715;55.752;37.884;2023-12-20T03:07:12;97131.09;;;31.10;26.05
54816;BME280;40715;55.752;37.884;2023-12-20T03:09:39;97127.53;;;31.10;26.24
54816;BME280;40715;55.752;37.884;2023-12-20T03:12:13;97125.03;;;31.08;26.25
54816;BME280;40715;55.752;37.884;2023-12-20T03:14:40;97119.38;;;31.10;26.71
54816;BME280;40715;55.752;37.884;2023-12-20T03:17:06;97117.25;;;31.12;26.83
54816;BME280;40715;55.752;37.884;2023-12-20T03:19:33;97119.06;;;31.18;26.94
54816;BME280;40715;55.752;37.884;2023-12-20T03:22:00;97125.81;;;31.15;26.86
54816;BME280;40715;55.752;37.884;2023-12-20T03:24:27;97132.81;;;31.23;26.90
54816;BME280;40715;55.752;37.884;2023-12-20T03:26:54;97117.94;;;31.26;26.60
54816;BME280;40715;55.752;37.884;2023-12-20T03:29:21;97109.53;;;31.27;26.89
54816;BME280;40715;55.752;37.884;2023-12-20T03:31:48;97114.75;;;31.29;26.91
54816;BME280;40715;55.752;37.884;2023-12-20T03:34:15;97119.13;;;31.30;26.84
54816;BME280;40715;55.752;37.884;2023-12-20T03:36:42;97126.22;;;31.31;26.56
54816;BME280;40715;55.752;37.884;2023-12-20T03:39:09;97125.41;;;31.30;26.60
54816;BME280;40715;55.752;37.884;2023-12-20T03:41:36;97130.03;;;31.30;26.75
54816;BME280;40715;55.752;37.884;2023-12-20T03:44:04;97121.84;;;31.30;26.56
54816;BME280;40715;55.752;37.884;2023-12-20T03:46:31;97116.66;;;31.28;26.64
54816;BME280;40715;55.752;37.884;2023-12-20T03:48:58;97110.81;;;31.25;26.82
54816;BME280;40715;55.752;37.884;2023-12-20T03:51:27;97109.53;;;31.27;26.68
54816;BME280;40715;55.752;37.884;2023-12-20T03:53:54;97119.56;;;31.27;26.77
54816;BME280;40715;55.752;37.884;2023-12-20T03:56:21;97120.66;;;31.26;26.67
54816;BME280;40715;55.752;37.884;2023-12-20T03:58:48;97125.69;;;31.22;27.12
54816;BME280;40715;55.752;37.884;2023-12-20T04:01:15;97130.56;;;31.20;26.80
54816;BME280;40715;55.752;37.884;2023-12-20T04:03:42;97126.00;;;31.14;27.18
54816;BME280;40715;55.752;37.884;2023-12-20T04:06:09;97138.56;;;31.15;27.09
54816;BME280;40715;55.752;37.884;2023-12-20T04:08:36;97134.16;;;31.14;27.20
54816;BME280;40715;55.752;37.884;2023-12-20T04:11:03;97129.81;;;31.13;27.16
54816;BME280;40715;55.752;37.884;2023-12-20T04:13:30;97123.75;;;31.11;27.23
54816;BME280;40715;55.752;37.884;2023-12-20T04:15:57;97132.13;;;31.09;26.90
54816;BME280;40715;55.752;37.884;2023-12-20T04:18:24;97133.19;;;31.08;27.23
54816;BME280;40715;55.752;37.884;2023-12-20T04:20:51;97130.09;;;31.05;26.98
54816;BME280;40715;55.752;37.884;2023-12-20T04:23:18;97130.09;;;31.05;26.96
54816;BME280;40715;55.752;37.884;2023-12-20T04:25:46;97121.34;;;31.03;27.18
54816;BME280;40715;55.752;37.884;2023-12-20T04:28:13;97128.44;;;31.04;26.85
54816;BME280;40715;55.752;37.884;2023-12-20T04:30:40;97128.88;;;31.01;26.85
54816;BME280;40715;55.752;37.884;2023-12-20T04:33:07;97132.44;;;31.01;26.87
54816;BME280;40715;55.752;37.884;2023-12-20T04:35:34;97132.63;;;30.99;26.87
54816;BME280;40715;55.752;37.884;2023-12-20T04:38:01;97132.44;;;31.01;27.17
54816;BME280;40715;55.752;37.884;2023-12-20T04:40:28;97134.94;;;31.03;26.99
54816;BME280;40715;55.752;37.884;2023-12-20T04:42:55;97139.94;;;31.06;26.93
54816;BME280;40715;55.752;37.884;2023-12-20T04:45:22;97141.97;;;31.10;26.94
54816;BME280;40715;55.752;37.884;2023-12-20T04:47:51;97147.56;;;31.15;26.76
54816;BME280;40715;55.752;37.884;2023-12-20T04:50:18;97133.84;;;31.22;26.73
54816;BME280;40715;55.752;37.884;2023-12-20T04:52:46;97139.69;;;31.26;26.75
54816;BME280;40715;55.752;37.884;2023-12-20T04:55:13;97144.44;;;31.30;26.19
54816;BME280;40715;55.752;37.884;2023-12-20T04:57:40;97146.94;;;31.32;26.49
54816;BME280;40715;55.752;37.884;2023-12-20T05:00:08;97141.25;;;31.33;26.53
54816;BME280;40715;55.752;37.884;2023-12-20T05:02:36;97148.38;;;31.35;26.43
54816;BME280;40715;55.752;37.884;2023-12-20T05:05:03;97143.50;;;31.37;26.40
54816;BME280;40715;55.752;37.884;2023-12-20T05:07:30;97147.09;;;31.37;25.95
54816;BME280;40715;55.752;37.884;2023-12-20T05:09:58;97139.97;;;31.36;26.32
54816;BME280;40715;55.752;37.884;2023-12-20T05:12:25;97153.34;;;31.38;26.25
54816;BME280;40715;55.752;37.884;2023-12-20T05:14:52;97155.25;;;31.37;25.89
54816;BME280;40715;55.752;37.884;2023-12-20T05:17:19;97151.69;;;31.37;26.13
54816;BME280;40715;55.752;37.884;2023-12-20T05:19:47;97153.81;;;31.35;26.13
54816;BME280;40715;55.752;37.884;2023-12-20T05:22:14;97154.63;;;31.35;25.84
54816;BME280;40715;55.752;37.884;2023-12-20T05:24:41;97154.03;;;31.33;25.69
54816;BME280;40715;55.752;37.884;2023-12-20T05:27:08;97144.44;;;31.30;25.93
54816;BME280;40715;55.752;37.884;2023-12-20T05:29:35;97147.63;;;31.27;26.04
54816;BME280;40715;55.752;37.884;2023-12-20T05:32:03;97164.75;;;31.28;26.15
54816;BME280;40715;55.752;37.884;2023-12-20T05:34:31;97166.88;;;31.26;25.87
54816;BME280;40715;55.752;37.884;2023-12-20T05:36:58;97164.41;;;31.24;25.75
54816;BME280;40715;55.752;37.884;2023-12-20T05:39:25;97164.00;;;31.21;25.88
54816;BME280;40715;55.752;37.884;2023-12-20T05:41:52;97166.13;;;31.19;25.75
54816;BME280;40715;55.752;37.884;2023-12-20T05:44:19;97167.66;;;31.14;26.21
54816;BME280;40715;55.752;37.884;2023-12-20T05:46:46;97163.25;;;31.13;26.10
54816;BME280;40715;55.752;37.884;2023-12-20T05:49:13;97156.38;;;31.11;26.26
54816;BME280;40715;55.752;37.884;2023-12-20T05:51:40;97156.59;;;31.09;25.93
54816;BME280;40715;55.752;37.884;2023-12-20T05:54:09;97157.66;;;31.08;26.22
54816;BME280;40715;55.752;37.884;2023-12-20T05:56:36;97164.63;;;31.04;26.10
54816;BME280;40715;55.752;37.884;2023-12-20T05:59:03;97152.06;;;31.03;26.04
54816;BME280;40715;55.752;37.884;2023-12-20T06:01:30;97161.69;;;31.06;26.17
54816;BME280;40715;55.752;37.884;2023-12-20T06:03:57;97156.47;;;31.04;26.31
54816;BME280;40715;55.752;37.884;2023-12-20T06:06:24;97174.66;;;31.04;26.36
54816;BME280;40715;55.752;37.884;2023-12-20T06:08:51;97177.16;;;31.05;26.30
54816;BME280;40715;55.752;37.884;2023-12-20T06:11:18;97180.25;;;31.09;26.30
54816;BME280;40715;55.752;37.884;2023-12-20T06:13:45;97169.97;;;31.11;25.98
54816;BME280;40715;55.752;37.884;2023-12-20T06:16:12;97185.00;;;31.13;25.97
54816;BME280;40715;55.752;37.884;2023-12-20T06:18:40;97177.59;;;31.21;25.96
54816;BME280;40715;55.752;37.884;2023-12-20T06:21:07;97192.19;;;31.26;26.20
54816;BME280;40715;55.752;37.884;2023-12-20T06:23:34;97187.72;;;31.32;26.14
54816;BME280;40715;55.752;37.884;2023-12-20T06:26:01;97184.56;;;31.35;26.13
54816;BME280;40715;55.752;37.884;2023-12-20T06:28:28;97183.50;;;31.36;25.58
54816;BME280;40715;55.752;37.884;2023-12-20T06:30:55;97190.38;;;31.39;25.68
54816;BME280;40715;55.752;37.884;2023-12-20T06:33:24;97186.63;;;31.40;25.75
54816;BME280;40715;55.752;37.884;2023-12-20T06:35:51;97187.19;;;31.42;25.57
54816;BME280;40715;55.752;37.884;2023-12-20T06:38:18;97182.81;;;31.41;25.42
54816;BME280;40715;55.752;37.884;2023-12-20T06:40:46;97186.16;;;31.43;25.83
54816;BME280;40715;55.752;37.884;2023-12-20T06:43:13;97181.75;;;31.42;25.79
54816;BME280;40715;55.752;37.884;2023-12-20T06:45:46;97182.81;;;31.41;25.64
54816;BME280;40715;55.752;37.884;2023-12-20T06:48:13;97184.94;;;31.39;25.35
54816;BME280;40715;55.752;37.884;2023-12-20T06:50:40;97178.66;;;31.38;25.41
54816;BME280;40715;55.752;37.884;2023-12-20T06:53:07;97182.44;;;31.37;25.63
54816;BME280;40715;55.752;37.884;2023-12-20T06:55:35;97186.22;;;31.36;25.57
54816;BME280;40715;55.752;37.884;2023-12-20T06:58:03;97188.56;;;31.32;25.57
54816;BME280;40715;55.752;37.884;2023-12-20T07:00:31;97178.75;;;31.31;25.18
54816;BME280;40715;55.752;37.884;2023-12-20T07:02:59;97179.22;;;31.28;25.31
54816;BME280;40715;55.752;37.884;2023-12-20T07:05:26;97178.00;;;31.24;25.50
54816;BME280;40715;55.752;37.884;2023-12-20T07:07:53;97185.06;;;31.25;25.34
54816;BME280;40715;55.752;37.884;2023-12-20T07:10:20;97186.81;;;31.20;25.22
54816;BME280;40715;55.752;37.884;2023-12-20T07:12:47;97193.34;;;31.19;25.28
54816;BME280;40715;55.752;37.884;2023-12-20T07:15:15;97178.06;;;31.18;25.25
54816;BME280;40715;55.752;37.884;2023-12-20T07:17:42;97183.97;;;31.14;25.58
54816;BME280;40715;55.752;37.884;2023-12-20T07:20:11;97194.84;;;31.14;25.33
54816;BME280;40715;55.752;37.884;2023-12-20T07:22:38;97190.69;;;31.12;25.57
54816;BME280;40715;55.752;37.884;2023-12-20T07:25:06;97191.72;;;31.11;25.66
54816;BME280;40715;55.752;37.884;2023-12-20T07:27:33;97193.63;;;31.10;25.62
54816;BME280;40715;55.752;37.884;2023-12-20T07:30:00;97199.53;;;31.07;25.35
54816;BME280;40715;55.752;37.884;2023-12-20T07:32:30;97208.25;;;31.09;25.70
54816;BME280;40715;55.752;37.884;2023-12-20T07:34:57;97199.28;;;31.09;25.50
54816;BME280;40715;55.752;37.884;2023-12-20T07:37:24;97212.88;;;31.09;25.43
54816;BME280;40715;55.752;37.884;2023-12-20T07:39:51;97207.59;;;31.14;25.37
54816;BME280;40715;55.752;37.884;2023-12-20T07:42:18;97212.19;;;31.13;25.55
54816;BME280;40715;55.752;37.884;2023-12-20T07:44:45;97207.97;;;31.18;25.37
54816;BME280;40715;55.752;37.884;2023-12-20T07:47:12;97213.34;;;31.24;25.27
54816;BME280;40715;55.752;37.884;2023-12-20T07:49:42;97215.84;;;31.26;25.14
54816;BME280;40715;55.752;37.884;2023-12-20T07:52:09;97219.78;;;31.30;25.52
54816;BME280;40715;55.752;37.884;2023-12-20T07:54:36;97224.53;;;31.35;25.37
54816;BME280;40715;55.752;37.884;2023-12-20T07:57:03;97225.59;;;31.33;25.27
54816;BME280;40715;55.752;37.884;2023-12-20T07:59:30;97229.97;;;31.35;25.06
54816;BME280;40715;55.752;37.884;2023-12-20T08:01:58;97227.84;;;31.37;24.98
54816;BME280;40715;55.752;37.884;2023-12-20T08:04:26;97233.91;;;31.39;25.02
54816;BME280;40715;55.752;37.884;2023-12-20T08:06:53;97238.50;;;31.38;25.15
54816;BME280;40715;55.752;37.884;2023-12-20T08:09:20;97233.44;;;31.42;24.90
54816;BME280;40715;55.752;37.884;2023-12-20T08:11:48;97226.44;;;31.34;25.25
54816;BME280;40715;55.752;37.884;2023-12-20T08:14:15;97235.78;;;31.38;25.31
54816;BME280;40715;55.752;37.884;2023-12-20T08:16:42;97226.81;;;31.38;25.19
54816;BME280;40715;55.752;37.884;2023-12-20T08:19:10;97233.28;;;31.37;24.99
54816;BME280;40715;55.752;37.884;2023-12-20T08:21:37;97237.69;;;31.38;24.98
54816;BME280;40715;55.752;37.884;2023-12-20T08:24:04;97234.59;;;31.34;25.00
54816;BME280;40715;55.752;37.884;2023-12-20T08:26:33;97229.81;;;31.29;25.40
54816;BME280;40715;55.752;37.884;2023-12-20T08:29:00;97237.75;;;31.31;25.30
54816;BME280;40715;55.752;37.884;2023-12-20T08:31:27;97229.00;;;31.29;25.27
54816;BME280;40715;55.752;37.884;2023-12-20T08:33:55;97235.47;;;31.28;25.02
54816;BME280;40715;55.752;37.884;2023-12-20T08:36:22;97237.59;;;31.26;25.42
54816;BME280;40715;55.752;37.884;2023-12-20T08:38:50;97230.72;;;31.23;25.48
54816;BME280;40715;55.752;37.884;2023-12-20T08:41:17;97220.66;;;31.24;25.08
54816;BME280;40715;55.752;37.884;2023-12-20T08:43:45;97216.53;;;31.21;25.23
54816;BME280;40715;55.752;37.884;2023-12-20T08:46:14;97212.13;;;31.20;25.24
54816;BME280;40715;55.752;37.884;2023-12-20T08:48:41;97227.59;;;31.20;25.23
54816;BME280;40715;55.752;37.884;2023-12-20T08:51:08;97212.81;;;31.15;25.28
54816;BME280;40715;55.752;37.884;2023-12-20T08:53:36;97212.81;;;31.15;25.31
54816;BME280;40715;55.752;37.884;2023-12-20T08:56:04;97219.53;;;31.13;25.31
54816;BME280;40715;55.752;37.884;2023-12-20T08:58:30;97220.38;;;31.13;25.70
54816;BME280;40715;55.752;37.884;2023-12-20T09:00:58;97216.81;;;31.13;25.38
54816;BME280;40715;55.752;37.884;2023-12-20T09:03:25;97208.88;;;31.11;25.43
54816;BME280;40715;55.752;37.884;2023-12-20T09:05:52;97206.41;;;31.10;25.39
54816;BME280;40715;55.752;37.884;2023-12-20T09:08:19;97205.94;;;31.13;25.81
54816;BME280;40715;55.752;37.884;2023-12-20T09:10:46;97214.47;;;31.17;25.52
54816;BME280;40715;55.752;37.884;2023-12-20T09:13:13;97212.97;;;31.21;25.77
54816;BME280;40715;55.752;37.884;2023-12-20T09:15:40;97215.00;;;31.25;25.73
54816;BME280;40715;55.752;37.884;2023-12-20T09:18:07;97215.63;;;31.27;25.22
54816;BME280;40715;55.752;37.884;2023-12-20T09:20:34;97221.19;;;31.32;25.23
54816;BME280;40715;55.752;37.884;2023-12-20T09:23:01;97203.59;;;31.35;25.39
54816;BME280;40715;55.752;37.884;2023-12-20T09:25:29;97207.75;;;31.38;25.23
54816;BME280;40715;55.752;37.884;2023-12-20T09:27:56;97212.28;;;31.44;25.74
54816;BME280;40715;55.752;37.884;2023-12-20T09:30:24;97215.56;;;31.53;25.67
54816;BME280;40715;55.752;37.884;2023-12-20T09:32:52;97214.66;;;31.59;25.65
54816;BME280;40715;55.752;37.884;2023-12-20T09:35:19;97213.16;;;31.63;25.55
54816;BME280;40715;55.752;37.884;2023-12-20T09:37:46;97218.72;;;31.68;25.83
54816;BME280;40715;55.752;37.884;2023-12-20T09:40:13;97225.38;;;31.72;25.69
54816;BME280;40715;55.752;37.884;2023-12-20T09:45:15;97216.75;;;31.75;25.76
54816;BME280;40715;55.752;37.884;2023-12-20T09:47:43;97219.34;;;31.70;25.81
54816;BME280;40715;55.752;37.884;2023-12-20T09:50:12;97208.44;;;31.70;25.57
54816;BME280;40715;55.752;37.884;2023-12-20T09:52:40;97213.66;;;31.72;25.57
54816;BME280;40715;55.752;37.884;2023-12-20T09:55:08;97208.00;;;31.73;25.38
54816;BME280;40715;55.752;37.884;2023-12-20T09:57:36;97212.59;;;31.73;25.50
54816;BME280;40715;55.752;37.884;2023-12-20T10:00:04;97212.38;;;31.74;25.56
54816;BME280;40715;55.752;37.884;2023-12-20T10:02:34;97220.53;;;31.74;25.52
54816;BME280;40715;55.752;37.884;2023-12-20T10:05:06;97220.53;;;31.74;25.84
54816;BME280;40715;55.752;37.884;2023-12-20T10:07:40;97217.59;;;31.76;25.56
54816;BME280;40715;55.752;37.884;2023-12-20T10:10:07;97216.31;;;31.78;25.79
54816;BME280;40715;55.752;37.884;2023-12-20T10:12:35;97220.91;;;31.78;25.91
54816;BME280;40715;55.752;37.884;2023-12-20T10:15:02;97213.19;;;31.75;25.66
54816;BME280;40715;55.752;37.884;2023-12-20T10:17:30;97216.63;;;31.70;25.59
54816;BME280;40715;55.752;37.884;2023-12-20T10:19:58;97214.81;;;31.64;25.74
54816;BME280;40715;55.752;37.884;2023-12-20T10:22:26;97226.97;;;31.61;25.47
54816;BME280;40715;55.752;37.884;2023-12-20T10:24:56;97224.91;;;31.57;25.45
54816;BME280;40715;55.752;37.884;2023-12-20T10:27:23;97233.94;;;31.57;25.44
54816;BME280;40715;55.752;37.884;2023-12-20T10:29:50;97224.53;;;31.53;25.44
54816;BME280;40715;55.752;37.884;2023-12-20T10:32:25;97226.88;;;31.49;25.48
54816;BME280;40715;55.752;37.884;2023-12-20T10:34:54;97236.34;;;31.47;25.36
54816;BME280;40715;55.752;37.884;2023-12-20T10:37:22;97235.47;;;31.46;25.41
54816;BME280;40715;55.752;37.884;2023-12-20T10:39:53;97240.09;;;31.46;25.61
54816;BME280;40715;55.752;37.884;2023-12-20T10:42:29;97225.44;;;31.47;25.98
54816;BME280;40715;55.752;37.884;2023-12-20T10:44:56;97227.31;;;31.46;25.51
54816;BME280;40715;55.752;37.884;2023-12-20T10:47:24;97234.03;;;31.44;25.79
54816;BME280;40715;55.752;37.884;2023-12-20T10:49:52;97225.22;;;31.48;25.53
54816;BME280;40715;55.752;37.884;2023-12-20T10:52:23;97242.59;;;31.47;25.47
54816;BME280;40715;55.752;37.884;2023-12-20T10:54:50;97231.25;;;31.50;25.77
54816;BME280;40715;55.752;37.884;2023-12-20T10:57:18;97228.69;;;31.56;25.25
54816;BME280;40715;55.752;37.884;2023-12-20T10:59:45;97237.47;;;31.58;25.31
54816;BME280;40715;55.752;37.884;2023-12-20T11:02:16;97228.63;;;31.62;25.15
54816;BME280;40715;55.752;37.884;2023-12-20T11:04:55;97232.19;;;31.63;25.53
54816;BME280;40715;55.752;37.884;2023-12-20T11:07:50;97230.34;;;31.75;25.13
54816;BME280;40715;55.752;37.884;2023-12-20T11:10:34;97226.44;;;31.71;25.15
54816;BME280;40715;55.752;37.884;2023-12-20T11:13:08;97233.63;;;31.65;25.11
54816;BME280;40715;55.752;37.884;2023-12-20T11:15:38;97235.75;;;31.63;24.90
54816;BME280;40715;55.752;37.884;2023-12-20T11:18:05;97230.75;;;31.60;25.25
54816;BME280;40715;55.752;37.884;2023-12-20T11:20:38;97230.16;;;31.58;25.22
54816;BME280;40715;55.752;37.884;2023-12-20T11:23:05;97229.53;;;31.56;25.24
54816;BME280;40715;55.752;37.884;2023-12-20T11:25:51;97233.88;;;31.64;25.14
54816;BME280;40715;55.752;37.884;2023-12-20T11:28:33;97239.50;;;31.62;24.90
54816;BME280;40715;55.752;37.884;2023-12-20T11:31:03;97225.34;;;31.54;25.18
54816;BME280;40715;55.752;37.884;2023-12-20T11:33:37;97226.44;;;31.53;24.94
54816;BME280;40715;55.752;37.884;2023-12-20T11:36:13;97223.09;;;31.50;25.31
54816;BME280;40715;55.752;37.884;2023-12-20T11:38:58;97209.66;;;31.56;25.32
54816;BME280;40715;55.752;37.884;2023-12-20T11:41:26;97200.56;;;31.43;25.35
54816;BME280;40715;55.752;37.884;2023-12-20T11:43:54;97197.91;;;31.37;25.09
54816;BME280;40715;55.752;37.884;2023-12-20T11:46:22;97206.09;;;31.37;25.24
54816;BME280;40715;55.752;37.884;2023-12-20T11:48:50;97209.88;;;31.36;25.00
54816;BME280;40715;55.752;37.884;2023-12-20T11:51:17;97204.44;;;31.36;25.24
54816;BME280;40715;55.752;37.884;2023-12-20T11:53:44;97208.22;;;31.35;25.27
54816;BME280;40715;55.752;37.884;2023-12-20T11:56:11;97206.31;;;31.35;25.04
54816;BME280;40715;55.752;37.884;2023-12-20T11:58:39;97206.53;;;31.33;25.19
54816;BME280;40715;55.752;37.884;2023-12-20T12:01:06;97215.75;;;31.32;25.30
54816;BME280;40715;55.752;37.884;2023-12-20T12:03:35;97216.59;;;31.33;24.92
54816;BME280;40715;55.752;37.884;2023-12-20T12:06:02;97215.38;;;31.29;24.85
54816;BME280;40715;55.752;37.884;2023-12-20T12:08:31;97229.34;;;31.32;25.19
54816;BME280;40715;55.752;37.884;2023-12-20T12:10:58;97220.59;;;31.30;24.86
54816;BME280;40715;55.752;37.884;2023-12-20T12:13:25;97227.72;;;31.31;25.01
54816;BME280;40715;55.752;37.884;2023-12-20T12:15:54;97221.81;;;31.35;25.10
54816;BME280;40715;55.752;37.884;2023-12-20T12:18:21;97223.50;;;31.36;25.11
54816;BME280;40715;55.752;37.884;2023-12-20T12:20:48;97217.44;;;31.33;24.74
54816;BME280;40715;55.752;37.884;2023-12-20T12:23:22;97223.50;;;31.36;25.20
54816;BME280;40715;55.752;37.884;2023-12-20T12:25:50;97241.84;;;31.40;24.73
54816;BME280;40715;55.752;37.884;2023-12-20T12:28:17;97237.84;;;31.43;25.10
54816;BME280;40715;55.752;37.884;2023-12-20T12:30:56;97230.44;;;31.50;24.76
54816;BME280;40715;55.752;37.884;2023-12-20T12:33:27;97232.94;;;31.52;25.07
54816;BME280;40715;55.752;37.884;2023-12-20T12:35:55;97237.91;;;31.55;24.56
54816;BME280;40715;55.752;37.884;2023-12-20T12:38:24;97257.56;;;31.57;24.92
54816;BME280;40715;55.752;37.884;2023-12-20T12:40:51;97246.25;;;31.60;24.77
54816;BME280;40715;55.752;37.884;2023-12-20T12:43:20;97269.09;;;31.59;24.47
54816;BME280;40715;55.752;37.884;2023-12-20T12:45:49;97269.50;;;31.56;24.69
54816;BME280;40715;55.752;37.884;2023-12-20T12:48:16;97260.94;;;31.59;24.47
54816;BME280;40715;55.752;37.884;2023-12-20T12:50:44;97270.34;;;31.56;24.54
54816;BME280;40715;55.752;37.884;2023-12-20T12:53:12;97275.78;;;31.56;24.75
54816;BME280;40715;55.752;37.884;2023-12-20T12:55:39;97270.78;;;31.53;24.53
54816;BME280;40715;55.752;37.884;2023-12-20T12:58:06;97276.69;;;31.50;24.38